Time;durP1;ratioP1;P1;durP2;ratioP2;P2;SDS_P1;SDS_P2;PMS_P1;PMS_P2;Temp;Humidity;BMP_temperature;BMP_pressure;BME280_temperature;BME280_humidity;BME280_pressure;Samples;Min_cycle;Max_cycle;Signal;HPM_P1;HPM_P2
2023/07/09 00:02:20;;;;;;;1999.90;999.90;;;24.60;99.90;;;;;;5027593;28;20479;-67
2023/07/09 00:04:45;;;;;;;1999.90;999.90;;;24.50;99.90;;;;;;5028194;28;20387;-68
2023/07/09 00:07:32;;;;;;;1999.90;999.90;;;24.60;99.90;;;;;;5026834;28;20451;-67
2023/07/09 00:09:59;;;;;;;1999.90;999.90;;;24.50;99.90;;;;;;5027926;28;20188;-67
2023/07/09 00:12:25;;;;;;;1999.90;999.90;;;24.50;99.90;;;;;;5028249;28;20486;-68
2023/07/09 00:14:51;;;;;;;1999.90;999.90;;;24.40;99.90;;;;;;5030275;28;20418;-67
2023/07/09 00:17:34;;;;;;;1999.90;999.90;;;24.40;99.90;;;;;;5029409;28;20462;-67
2023/07/09 00:20:00;;;;;;;1999.90;999.90;;;24.30;99.90;;;;;;5029359;28;20228;-68
2023/07/09 00:22:26;;;;;;;1999.90;999.90;;;24.20;99.90;;;;;;5029090;28;20403;-67
2023/07/09 00:24:56;;;;;;;1999.90;999.90;;;24.20;99.90;;;;;;5029876;28;20200;-68
2023/07/09 00:27:26;;;;;;;1999.90;999.90;;;24.10;99.90;;;;;;5029664;28;20453;-67
2023/07/09 00:29:52;;;;;;;1999.90;999.90;;;24.00;99.90;;;;;;5030337;28;20415;-67
2023/07/09 00:32:21;;;;;;;1999.90;999.90;;;24.00;99.90;;;;;;5029976;28;20393;-67
2023/07/09 00:34:51;;;;;;;1999.90;999.90;;;24.00;99.90;;;;;;5030965;28;20170;-68
2023/07/09 00:37:19;;;;;;;1999.90;999.90;;;23.90;99.90;;;;;;5029278;28;20536;-68
2023/07/09 00:39:48;;;;;;;1999.90;999.90;;;23.90;99.90;;;;;;5013250;28;20463;-68
2023/07/09 00:42:23;;;;;;;1999.90;999.90;;;23.80;99.90;;;;;;5012948;28;20914;-68
2023/07/09 00:44:54;;;;;;;1999.90;999.90;;;23.80;99.90;;;;;;5013204;28;20399;-68
2023/07/09 00:47:25;;;;;;;1999.90;999.90;;;23.70;99.90;;;;;;5013212;28;20800;-68
2023/07/09 00:50:04;;;;;;;1999.90;999.90;;;23.70;99.90;;;;;;5013409;28;20786;-68
2023/07/09 00:52:49;;;;;;;1999.90;999.90;;;23.60;99.90;;;;;;5005463;28;20396;-68
2023/07/09 00:55:20;;;;;;;1999.90;999.90;;;23.60;99.90;;;;;;5012902;28;20408;-68
2023/07/09 00:57:55;;;;;;;1999.90;999.90;;;23.60;99.90;;;;;;5012865;28;20441;-68
2023/07/09 01:00:27;;;;;;;1999.90;999.90;;;23.50;99.90;;;;;;5012876;28;20525;-68
2023/07/09 01:02:53;;;;;;;1999.90;999.90;;;23.50;99.90;;;;;;5012813;28;20434;-68
2023/07/09 01:05:19;;;;;;;1999.90;999.90;;;23.40;99.90;;;;;;5012971;28;20864;-68
2023/07/09 01:07:46;;;;;;;1999.90;999.90;;;23.30;99.90;;;;;;5008538;28;20503;-68
2023/07/09 01:10:14;;;;;;;1999.90;999.90;;;23.20;99.90;;;;;;5011269;28;20437;-68
2023/07/09 01:12:40;;;;;;;1999.90;999.90;;;23.20;99.90;;;;;;5012433;28;20486;-68
2023/07/09 01:15:07;;;;;;;1999.90;999.90;;;23.10;99.90;;;;;;5012786;28;20470;-68
2023/07/09 01:17:33;;;;;;;1999.90;999.90;;;23.00;99.90;;;;;;5012424;28;20426;-67
2023/07/09 01:19:58;;;;;;;1999.90;999.90;;;23.00;99.90;;;;;;5012551;28;20434;-67
2023/07/09 01:22:25;;;;;;;1999.90;999.90;;;23.00;99.90;;;;;;5012003;28;20157;-68
2023/07/09 01:25:06;;;;;;;1999.90;999.90;;;23.00;99.90;;;;;;5008308;28;20254;-68
2023/07/09 01:27:42;;;;;;;1999.90;999.90;;;23.00;99.90;;;;;;5007910;28;20811;-68
2023/07/09 01:30:22;;;;;;;1999.90;999.90;;;23.10;99.90;;;;;;5012442;28;20407;-68
2023/07/09 01:32:51;;;;;;;1999.90;999.90;;;23.10;99.90;;;;;;5012253;28;20400;-68
2023/07/09 01:35:20;;;;;;;1999.90;999.90;;;23.10;99.90;;;;;;5012445;28;20377;-68
2023/07/09 01:37:46;;;;;;;1999.90;999.90;;;23.10;99.90;;;;;;5010164;28;20852;-68
2023/07/09 01:40:14;;;;;;;1999.90;999.90;;;23.10;99.90;;;;;;5011132;28;20434;-68
2023/07/09 01:42:40;;;;;;;1999.90;999.90;;;23.10;99.90;;;;;;5012163;28;20426;-67
2023/07/09 01:45:09;;;;;;;1999.90;999.90;;;23.10;99.90;;;;;;5012250;28;20370;-67
2023/07/09 01:47:35;;;;;;;1999.90;999.90;;;23.10;99.90;;;;;;5012026;28;20250;-68
2023/07/09 01:50:01;;;;;;;1999.90;999.90;;;23.00;99.90;;;;;;5012382;28;20516;-68
2023/07/09 01:52:29;;;;;;;1999.90;999.90;;;23.00;99.90;;;;;;5011963;28;20424;-68
2023/07/09 01:54:54;;;;;;;1999.90;999.90;;;23.00;99.90;;;;;;5010451;28;20263;-67
2023/07/09 01:57:26;;;;;;;1999.90;999.90;;;22.90;99.90;;;;;;5012031;28;20489;-67
2023/07/09 01:59:55;;;;;;;1999.90;999.90;;;22.90;99.90;;;;;;5012155;28;20227;-67
2023/07/09 02:02:22;;;;;;;1999.90;999.90;;;22.90;99.90;;;;;;5011927;28;20499;-68
2023/07/09 02:04:50;;;;;;;1999.90;999.90;;;22.80;99.90;;;;;;5012286;28;20989;-67
2023/07/09 02:07:17;;;;;;;1999.90;999.90;;;22.70;99.90;;;;;;5012086;28;20401;-67
2023/07/09 02:09:42;;;;;;;1999.90;999.90;;;22.70;99.90;;;;;;5011114;28;20424;-67
2023/07/09 02:12:09;;;;;;;1999.90;999.90;;;22.60;99.90;;;;;;5011674;28;20776;-67
2023/07/09 02:14:35;;;;;;;1999.90;999.90;;;22.60;99.90;;;;;;5012039;28;20581;-68
2023/07/09 02:17:01;;;;;;;1999.90;999.90;;;22.50;99.90;;;;;;5011775;28;20574;-67
2023/07/09 02:19:28;;;;;;;1999.90;999.90;;;22.50;99.90;;;;;;5011830;28;20810;-67
2023/07/09 02:21:54;;;;;;;1999.90;999.90;;;22.40;99.90;;;;;;5011727;28;20161;-67
2023/07/09 02:24:24;;;;;;;1999.90;999.90;;;22.40;99.90;;;;;;5014246;28;20498;-67
2023/07/09 02:26:50;;;;;;;1999.90;999.90;;;22.40;99.90;;;;;;5011066;28;20196;-67
2023/07/09 02:29:16;;;;;;;1999.90;999.90;;;22.40;99.90;;;;;;5015699;28;20426;-67
2023/07/09 02:31:41;;;;;;;1999.90;999.90;;;22.30;99.90;;;;;;5015676;28;20408;-67
2023/07/09 02:34:07;;;;;;;1999.90;999.90;;;22.30;99.90;;;;;;5015696;28;20168;-67
2023/07/09 02:36:32;;;;;;;1999.90;999.90;;;22.30;99.90;;;;;;5015505;28;20203;-67
2023/07/09 02:38:58;;;;;;;1999.90;999.90;;;22.30;99.90;;;;;;5007541;28;20709;-67
2023/07/09 02:41:23;;;;;;;1999.90;999.90;;;22.30;99.90;;;;;;5015038;28;20224;-67
2023/07/09 02:43:49;;;;;;;1999.90;999.90;;;22.20;99.90;;;;;;5015557;28;20176;-67
2023/07/09 02:46:14;;;;;;;1999.90;999.90;;;22.10;99.90;;;;;;5015281;28;20565;-67
2023/07/09 02:48:40;;;;;;;1999.90;999.90;;;22.00;99.90;;;;;;5015334;28;20205;-67
2023/07/09 02:51:06;;;;;;;1999.90;999.90;;;22.00;99.90;;;;;;5014961;28;20180;-67
2023/07/09 02:53:31;;;;;;;1999.90;999.90;;;22.00;99.90;;;;;;5014744;28;20270;-67
2023/07/09 02:55:57;;;;;;;1999.90;999.90;;;22.00;99.90;;;;;;5015116;28;20183;-67
2023/07/09 02:58:22;;;;;;;1999.90;999.90;;;22.00;99.90;;;;;;5015062;28;20180;-67
2023/07/09 03:00:54;;;;;;;1999.90;999.90;;;22.00;99.90;;;;;;5015120;28;20208;-67
2023/07/09 03:03:20;;;;;;;1999.90;999.90;;;22.00;99.90;;;;;;5015404;28;20633;-67
2023/07/09 03:05:47;;;;;;;1999.90;999.90;;;22.00;99.90;;;;;;5015036;28;20405;-67
2023/07/09 03:08:14;;;;;;;1999.90;999.90;;;22.00;99.90;;;;;;5014954;28;20473;-67
2023/07/09 03:10:40;;;;;;;1999.90;999.90;;;21.90;99.90;;;;;;5009258;28;20426;-67
2023/07/09 03:13:05;;;;;;;1999.90;999.90;;;21.90;99.90;;;;;;5014591;28;20412;-67
2023/07/09 03:15:31;;;;;;;1999.90;999.90;;;21.90;99.90;;;;;;5014819;28;20659;-67
2023/07/09 03:17:57;;;;;;;1999.90;999.90;;;21.90;99.90;;;;;;5014833;28;20690;-67
2023/07/09 03:20:23;;;;;;;1999.90;999.90;;;21.90;99.90;;;;;;5006690;28;20285;-67
2023/07/09 03:22:49;;;;;;;1999.90;999.90;;;21.80;99.90;;;;;;5014604;28;20967;-68
2023/07/09 03:25:14;;;;;;;1999.90;999.90;;;21.70;99.90;;;;;;5009492;28;20398;-67
2023/07/09 03:27:40;;;;;;;1999.90;999.90;;;21.70;99.90;;;;;;5014710;28;20239;-67
2023/07/09 03:30:06;;;;;;;1999.90;999.90;;;21.70;99.90;;;;;;5014725;28;20180;-67
2023/07/09 03:32:32;;;;;;;1999.90;999.90;;;21.70;99.90;;;;;;5014467;28;20184;-67
2023/07/09 03:34:57;;;;;;;1999.90;999.90;;;21.60;99.90;;;;;;5013429;28;20416;-67
2023/07/09 03:37:23;;;;;;;1999.90;999.90;;;21.60;99.90;;;;;;5014458;28;20199;-67
2023/07/09 03:39:48;;;;;;;1999.90;999.90;;;21.60;99.90;;;;;;5009975;28;20204;-67
2023/07/09 03:42:14;;;;;;;1999.90;999.90;;;21.60;99.90;;;;;;5013956;28;20169;-67
2023/07/09 03:44:40;;;;;;;1999.90;999.90;;;21.60;99.90;;;;;;5014506;28;20164;-67
2023/07/09 03:47:06;;;;;;;1999.90;999.90;;;21.60;99.90;;;;;;5014274;28;20196;-67
2023/07/09 03:49:32;;;;;;;1999.90;999.90;;;21.60;99.90;;;;;;5014328;28;20412;-67
2023/07/09 03:51:58;;;;;;;1999.90;999.90;;;21.60;99.90;;;;;;5013998;28;20174;-67
2023/07/09 03:54:24;;;;;;;1999.90;999.90;;;21.50;99.90;;;;;;5013427;28;20444;-67
2023/07/09 03:56:49;;;;;;;1999.90;999.90;;;21.50;99.90;;;;;;5014262;28;20197;-67
2023/07/09 03:59:15;;;;;;;1999.90;999.90;;;21.50;99.90;;;;;;5014065;28;20639;-68
2023/07/09 04:01:46;;;;;;;1999.90;999.90;;;21.50;99.90;;;;;;5013784;28;20172;-67
2023/07/09 04:04:15;;;;;;;1999.90;999.90;;;21.50;99.90;;;;;;5014066;28;20184;-67
2023/07/09 04:06:40;;;;;;;1999.90;999.90;;;21.50;99.90;;;;;;5013923;28;20433;-67
2023/07/09 04:09:06;;;;;;;1999.90;999.90;;;21.60;99.90;;;;;;5013115;28;20391;-67
2023/07/09 04:11:32;;;;;;;1999.90;999.90;;;21.60;99.90;;;;;;5013554;28;20396;-67
2023/07/09 04:13:58;;;;;;;1999.90;999.90;;;21.70;99.90;;;;;;5013743;28;20210;-67
2023/07/09 04:16:23;;;;;;;1999.90;999.90;;;21.60;99.90;;;;;;5013516;28;20480;-67
2023/07/09 04:18:49;;;;;;;1999.90;999.90;;;21.60;99.90;;;;;;5013895;28;20604;-67
2023/07/09 04:21:14;;;;;;;1999.90;999.90;;;21.70;99.90;;;;;;5013355;28;20580;-67
2023/07/09 04:23:40;;;;;;;1999.90;999.90;;;21.70;99.90;;;;;;5013536;28;20177;-67
2023/07/09 04:26:08;;;;;;;1999.90;999.90;;;21.70;99.90;;;;;;5011642;28;20197;-67
2023/07/09 04:28:34;;;;;;;1999.90;999.90;;;21.70;99.90;;;;;;5013608;28;20173;-67
2023/07/09 04:31:00;;;;;;;1999.90;999.90;;;21.70;99.90;;;;;;5013130;28;20422;-67
2023/07/09 04:33:26;;;;;;;1999.90;999.90;;;21.80;99.90;;;;;;5013689;28;20545;-67
2023/07/09 04:35:51;;;;;;;1999.90;999.90;;;21.80;99.90;;;;;;5013382;28;20177;-67
2023/07/09 04:38:17;;;;;;;1999.90;999.90;;;21.90;99.90;;;;;;5013349;28;20180;-67
2023/07/09 04:40:43;;;;;;;1999.90;999.90;;;21.90;99.90;;;;;;5012489;28;20362;-67
2023/07/09 04:43:08;;;;;;;1999.90;999.90;;;22.00;99.90;;;;;;5013007;28;20164;-67
2023/07/09 04:45:34;;;;;;;1999.90;999.90;;;22.00;99.90;;;;;;5012906;28;20516;-67
2023/07/09 04:48:00;;;;;;;1999.90;999.90;;;22.00;99.90;;;;;;5013109;28;20195;-67
2023/07/09 04:50:25;;;;;;;1999.90;999.90;;;22.10;99.90;;;;;;5013212;28;20603;-67
2023/07/09 04:52:52;;;;;;;1999.90;999.90;;;22.10;99.90;;;;;;5012819;28;20182;-67
2023/07/09 04:55:18;;;;;;;1999.90;999.90;;;22.20;99.90;;;;;;5011488;28;20192;-67
2023/07/09 04:57:44;;;;;;;1999.90;999.90;;;22.20;99.90;;;;;;5012840;28;20443;-67
2023/07/09 05:00:11;;;;;;;1999.90;999.90;;;22.20;99.90;;;;;;5012990;28;20510;-67
2023/07/09 05:02:36;;;;;;;1999.90;999.90;;;22.30;99.90;;;;;;5012696;28;20408;-67
2023/07/09 05:05:02;;;;;;;1999.90;999.90;;;22.40;99.90;;;;;;5012716;28;20817;-67
2023/07/09 05:07:28;;;;;;;1999.90;999.90;;;22.40;99.90;;;;;;5012647;28;20189;-68
2023/07/09 05:09:53;;;;;;;1999.90;999.90;;;22.40;99.90;;;;;;5009056;28;20178;-67
2023/07/09 05:12:20;;;;;;;1999.90;999.90;;;22.50;99.90;;;;;;5011974;28;20577;-67
2023/07/09 05:14:46;;;;;;;1999.90;999.90;;;22.50;99.90;;;;;;5012701;28;20203;-67
2023/07/09 05:17:12;;;;;;;1999.90;999.90;;;22.50;99.90;;;;;;5012407;28;20434;-67
2023/07/09 05:19:38;;;;;;;1999.90;999.90;;;22.60;99.90;;;;;;5012508;28;20280;-67
2023/07/09 05:22:04;;;;;;;1999.90;999.90;;;22.60;99.90;;;;;;5012359;28;20161;-67
2023/07/09 05:24:29;;;;;;;1999.90;999.90;;;22.70;99.90;;;;;;5012591;28;20465;-67
2023/07/09 05:26:55;;;;;;;1999.90;999.90;;;22.80;99.90;;;;;;5008753;28;20443;-67
2023/07/09 05:29:21;;;;;;;1999.90;999.90;;;22.90;99.90;;;;;;5012336;28;20168;-67
2023/07/09 05:31:47;;;;;;;1999.90;999.90;;;22.90;99.90;;;;;;5012151;28;20458;-67
2023/07/09 05:34:13;;;;;;;1999.90;999.90;;;23.00;99.90;;;;;;5012471;28;20497;-67
2023/07/09 05:36:39;;;;;;;1999.90;999.90;;;23.10;99.90;;;;;;5012418;28;20237;-67
2023/07/09 05:39:04;;;;;;;1999.90;999.90;;;23.20;99.90;;;;;;5012341;28;20169;-67
2023/07/09 05:41:30;;;;;;;1999.90;999.90;;;23.30;99.90;;;;;;5010213;28;20790;-67
2023/07/09 05:43:56;;;;;;;1999.90;999.90;;;23.30;99.90;;;;;;5012365;28;20182;-67
2023/07/09 05:46:23;;;;;;;1999.90;999.90;;;23.40;99.90;;;;;;5012134;28;20404;-67
2023/07/09 05:48:48;;;;;;;1999.90;999.90;;;23.50;99.90;;;;;;5012295;28;20176;-67
2023/07/09 05:51:14;;;;;;;1999.90;999.90;;;23.60;99.90;;;;;;5011706;28;20896;-67
2023/07/09 05:53:40;;;;;;;1999.90;999.90;;;23.60;99.90;;;;;;5012403;28;20177;-67
2023/07/09 05:56:06;;;;;;;1999.90;999.90;;;23.60;99.90;;;;;;5010349;28;20197;-67
2023/07/09 05:58:31;;;;;;;1999.90;999.90;;;23.70;99.90;;;;;;5002634;28;20173;-67
2023/07/09 06:00:57;;;;;;;1999.90;999.90;;;23.70;99.90;;;;;;5011726;28;20426;-67
2023/07/09 06:03:25;;;;;;;1999.90;999.90;;;23.90;99.90;;;;;;5012240;28;20214;-67
2023/07/09 06:05:52;;;;;;;1999.90;999.90;;;24.00;99.90;;;;;;5011974;28;20412;-67
2023/07/09 06:08:18;;;;;;;1999.90;999.90;;;24.10;99.90;;;;;;5011930;28;20899;-67
2023/07/09 06:10:59;;;;;;;1999.90;999.90;;;24.20;99.90;;;;;;5012113;28;20382;-67
2023/07/09 06:13:26;;;;;;;1999.90;999.90;;;24.30;99.90;;;;;;5010307;28;20537;-67
2023/07/09 06:15:54;;;;;;;1999.90;999.90;;;24.50;99.90;;;;;;5011939;28;20419;-67
2023/07/09 06:18:20;;;;;;;1999.90;999.90;;;24.50;99.90;;;;;;5011876;28;20770;-67
2023/07/09 06:20:48;;;;;;;1999.90;999.90;;;24.60;99.90;;;;;;5012041;28;20810;-67
2023/07/09 06:23:14;;;;;;;1999.90;999.90;;;24.80;99.90;;;;;;5011265;28;20412;-67
2023/07/09 06:25:39;;;;;;;1999.90;999.90;;;24.90;99.90;;;;;;5011072;28;20496;-67
2023/07/09 06:28:05;;;;;;;1999.90;999.90;;;25.00;99.90;;;;;;5009832;28;20174;-67
2023/07/09 06:30:30;;;;;;;1999.90;999.90;;;25.10;99.90;;;;;;5010481;28;20184;-67
2023/07/09 06:32:56;;;;;;;1999.90;999.90;;;25.20;99.90;;;;;;5011540;28;20260;-67
2023/07/09 06:35:21;;;;;;;1999.90;999.90;;;25.30;99.90;;;;;;5011807;28;20177;-67
2023/07/09 06:37:47;;;;;;;1999.90;999.90;;;25.40;99.90;;;;;;5012251;28;20203;-67
2023/07/09 06:40:13;;;;;;;1999.90;999.90;;;25.50;99.90;;;;;;5011816;28;20216;-68
2023/07/09 06:42:38;;;;;;;1999.90;999.90;;;25.60;99.90;;;;;;5011553;28;20453;-67
2023/07/09 06:45:05;;;;;;;1999.90;999.90;;;25.70;99.90;;;;;;5008736;28;20235;-68
2023/07/09 06:47:30;;;;;;;1999.90;999.90;;;25.90;99.90;;;;;;5011512;28;20199;-68
2023/07/09 06:49:56;;;;;;;1999.90;999.90;;;25.90;99.90;;;;;;5011573;28;20423;-68
2023/07/09 06:52:21;;;;;;;1999.90;999.90;;;26.00;99.90;;;;;;5011337;28;20184;-68
2023/07/09 06:54:49;;;;;;;1999.90;999.90;;;26.10;99.90;;;;;;5011524;28;20247;-68
2023/07/09 06:57:14;;;;;;;1999.90;999.90;;;26.10;99.90;;;;;;5011662;28;20280;-68
2023/07/09 06:59:40;;;;;;;1999.90;999.90;;;26.20;99.90;;;;;;5007722;28;20558;-68
2023/07/09 07:02:06;;;;;;;1999.90;999.90;;;26.30;99.90;;;;;;5011336;28;20231;-69
2023/07/09 07:04:31;;;;;;;1999.90;999.90;;;26.40;99.90;;;;;;5011429;28;20538;-69
2023/07/09 07:06:57;;;;;;;1999.90;999.90;;;26.50;99.90;;;;;;5008229;28;20965;-68
2023/07/09 07:09:23;;;;;;;1999.90;999.90;;;26.60;99.90;;;;;;5012612;28;20239;-68
2023/07/09 07:11:50;;;;;;;1999.90;999.90;;;26.70;99.90;;;;;;4997064;28;20181;-69
2023/07/09 07:14:15;;;;;;;1999.90;999.90;;;26.90;99.90;;;;;;4996054;28;20512;-68
2023/07/09 07:16:41;;;;;;;1999.90;999.90;;;27.00;99.90;;;;;;5010274;28;20539;-68
2023/07/09 07:19:07;;;;;;;1999.90;999.90;;;27.10;99.90;;;;;;5014469;28;20536;-68
2023/07/09 07:21:32;;;;;;;1999.90;999.90;;;27.20;99.90;;;;;;5014234;28;20196;-68
2023/07/09 07:23:58;;;;;;;1999.90;999.90;;;27.30;99.90;;;;;;5013667;28;21537;-69
2023/07/09 07:26:24;;;;;;;1999.90;999.90;;;27.40;99.90;;;;;;5010088;28;20732;-68
2023/07/09 07:28:50;;;;;;;1999.90;999.90;;;27.50;99.90;;;;;;5013773;28;20171;-68
2023/07/09 07:31:16;;;;;;;1999.90;999.90;;;27.60;99.90;;;;;;5014242;28;20972;-68
2023/07/09 07:33:42;;;;;;;1999.90;999.90;;;27.80;99.90;;;;;;5014589;28;20395;-69
2023/07/09 07:36:08;;;;;;;1999.90;999.90;;;27.90;99.90;;;;;;5014427;28;20458;-69
2023/07/09 07:38:34;;;;;;;1999.90;999.90;;;27.90;99.90;;;;;;5014482;28;20196;-68
2023/07/09 07:41:01;;;;;;;1999.90;999.90;;;28.00;99.90;;;;;;5013973;28;20930;-68
2023/07/09 07:43:27;;;;;;;1999.90;999.90;;;28.10;99.90;;;;;;5014376;28;20200;-69
2023/07/09 07:45:53;;;;;;;1999.90;999.90;;;28.20;99.90;;;;;;5014196;28;20435;-68
2023/07/09 07:48:19;;;;;;;1999.90;999.90;;;28.20;99.90;;;;;;5014456;28;20811;-68
2023/07/09 07:50:47;;;;;;;1999.90;999.90;;;28.30;99.90;;;;;;5014279;28;20191;-68
2023/07/09 07:53:15;;;;;;;1999.90;999.90;;;28.30;99.90;;;;;;5014169;28;20272;-69
2023/07/09 07:55:41;;;;;;;1999.90;999.90;;;28.40;99.90;;;;;;5014083;28;20454;-68
2023/07/09 07:58:10;;;;;;;1999.90;999.90;;;28.40;99.90;;;;;;5014133;28;20408;-68
2023/07/09 08:00:36;;;;;;;1999.90;999.90;;;28.40;99.90;;;;;;5014034;28;20465;-70
2023/07/09 08:03:02;;;;;;;1999.90;999.90;;;28.60;99.90;;;;;;5009999;28;20857;-69
2023/07/09 08:05:28;;;;;;;1999.90;999.90;;;28.70;99.90;;;;;;5010277;28;20839;-69
2023/07/09 08:07:54;;;;;;;1999.90;999.90;;;28.80;99.90;;;;;;5009428;28;20501;-68
2023/07/09 08:10:20;;;;;;;1999.90;999.90;;;29.00;99.90;;;;;;5010152;28;20420;-67
2023/07/09 08:12:45;;;;;;;1999.90;999.90;;;29.10;99.90;;;;;;5009239;28;20189;-68
2023/07/09 08:15:11;;;;;;;1999.90;999.90;;;29.30;99.90;;;;;;5009333;28;20180;-68
2023/07/09 08:17:36;;;;;;;1999.90;999.90;;;29.40;99.90;;;;;;5009496;28;20219;-68
2023/07/09 08:20:02;;;;;;;1999.90;999.90;;;29.40;99.90;;;;;;5008215;28;20201;-69
2023/07/09 08:22:28;;;;;;;1999.90;999.90;;;29.50;99.90;;;;;;5007977;28;20196;-69
2023/07/09 08:24:53;;;;;;;1999.90;999.90;;;29.50;99.90;;;;;;5009734;28;20176;-68
2023/07/09 08:27:19;;;;;;;1999.90;999.90;;;29.60;99.90;;;;;;5008976;28;20188;-68
2023/07/09 08:29:45;;;;;;;1999.90;999.90;;;29.80;99.90;;;;;;5009881;28;20184;-68
2023/07/09 08:32:12;;;;;;;1999.90;999.90;;;29.90;99.90;;;;;;5008954;28;20180;-68
2023/07/09 08:34:39;;;;;;;1999.90;999.90;;;30.10;99.90;;;;;;5008997;28;20422;-68
2023/07/09 08:37:06;;;;;;;1999.90;999.90;;;30.20;99.10;;;;;;5009746;28;20463;-68
2023/07/09 08:39:32;;;;;;;1999.90;999.90;;;30.20;99.80;;;;;;5008861;28;20974;-68
2023/07/09 08:42:11;;;;;;;1999.90;999.90;;;30.30;98.60;;;;;;5008514;28;20419;-68
2023/07/09 08:44:51;;;;;;;1999.90;999.90;;;30.40;97.80;;;;;;5008915;28;20260;-68
2023/07/09 08:47:50;;;;;;;1999.90;999.90;;;30.50;97.00;;;;;;5008678;28;20854;-68
2023/07/09 08:50:32;;;;;;;1999.90;999.90;;;30.60;96.70;;;;;;5009114;28;20408;-68
2023/07/09 08:52:58;;;;;;;1999.90;999.90;;;30.70;96.70;;;;;;5008626;28;20416;-69
2023/07/09 08:55:28;;;;;;;1999.90;999.90;;;30.80;95.90;;;;;;5009734;28;20920;-68
2023/07/09 08:58:17;;;;;;;1999.90;999.90;;;30.90;96.90;;;;;;5009693;28;20884;-67
2023/07/09 09:00:54;;;;;;;1999.90;999.90;;;31.10;95.00;;;;;;5010596;28;20879;-66
2023/07/09 09:03:44;;;;;;;1999.90;999.90;;;31.10;93.50;;;;;;5009949;28;20415;-68
2023/07/09 09:06:16;;;;;;;1999.90;999.90;;;31.30;91.70;;;;;;5008222;28;20852;-68
2023/07/09 09:09:03;;;;;;;1999.90;999.90;;;31.40;90.90;;;;;;5008232;28;20412;-67
2023/07/09 09:11:50;;;;;;;1999.90;999.90;;;31.50;91.20;;;;;;5006706;28;20416;-67
2023/07/09 09:15:04;;;;;;;1999.90;999.90;;;31.70;91.10;;;;;;5009138;28;20408;-68
2023/07/09 09:17:34;;;;;;;1999.90;999.90;;;31.80;83.90;;;;;;5005978;28;20566;-67
2023/07/09 09:20:04;;;;;;;1999.90;999.90;;;31.90;80.60;;;;;;5008701;28;20926;-68
2023/07/09 09:22:54;;;;;;;1999.90;999.90;;;32.10;76.90;;;;;;5007926;28;20416;-67
2023/07/09 09:25:31;;;;;;;1999.90;999.90;;;32.20;69.20;;;;;;5009011;28;20415;-67
2023/07/09 09:27:59;;;;;;;1999.90;999.90;;;32.30;64.90;;;;;;5008809;28;20431;-67
2023/07/09 09:30:24;;;;;;;1999.90;999.90;;;32.50;60.40;;;;;;5007722;28;20423;-67
2023/07/09 09:32:55;;;;;;;1999.90;999.90;;;32.60;60.20;;;;;;4999690;28;20428;-67
2023/07/09 09:35:28;;;;;;;1999.90;999.90;;;32.80;57.50;;;;;;5008012;28;20179;-68
2023/07/09 09:37:56;;;;;;;1999.90;999.90;;;32.90;57.30;;;;;;5008317;28;21103;-68
2023/07/09 09:40:23;;;;;;;1999.90;999.90;;;33.10;55.20;;;;;;5007516;28;20459;-67
2023/07/09 09:42:54;;;;;;;1999.90;999.90;;;33.10;52.50;;;;;;5007584;28;20416;-67
2023/07/09 09:45:33;;;;;;;1999.90;999.90;;;33.20;51.30;;;;;;5007800;28;20416;-67
2023/07/09 09:48:00;;;;;;;1999.90;999.90;;;33.40;49.00;;;;;;5006953;28;20820;-67
2023/07/09 09:50:31;;;;;;;1999.90;999.90;;;33.50;46.10;;;;;;5008009;28;20419;-67
2023/07/09 09:52:56;;;;;;;1999.90;999.90;;;33.90;49.50;;;;;;5007687;28;20454;-68
2023/07/09 09:55:29;;;;;;;1999.90;999.90;;;34.00;44.20;;;;;;5007126;28;20832;-68
2023/07/09 09:57:56;;;;;;;1999.90;999.90;;;34.10;41.10;;;;;;5007656;28;20302;-67
2023/07/09 10:00:25;;;;;;;1999.90;999.90;;;34.30;38.90;;;;;;5008246;28;20637;-67
2023/07/09 10:02:56;;;;;;;1999.90;999.90;;;34.30;36.80;;;;;;5006897;28;20416;-68
2023/07/09 10:05:31;;;;;;;1999.90;999.90;;;34.40;37.20;;;;;;5007495;28;20906;-68
2023/07/09 10:08:07;;;;;;;1999.90;999.90;;;34.50;34.90;;;;;;5007576;28;20492;-68
2023/07/09 10:10:33;;;;;;;1999.90;999.90;;;34.70;29.40;;;;;;5006999;28;20416;-68
2023/07/09 10:13:06;;;;;;;1999.90;999.90;;;34.80;25.50;;;;;;5007973;28;20415;-68
2023/07/09 10:16:02;;;;;;;1999.90;999.90;;;34.90;25.30;;;;;;5008191;28;20478;-68
2023/07/09 10:18:59;;;;;;;1999.90;999.90;;;34.90;24.60;;;;;;5006625;28;20951;-68
2023/07/09 10:21:43;;;;;;;1999.90;999.90;;;35.00;20.50;;;;;;4987882;28;20514;-68
2023/07/09 10:24:27;;;;;;;1999.90;999.90;;;35.00;19.80;;;;;;4987535;28;20779;-68
2023/07/09 10:27:11;;;;;;;1999.90;999.90;;;34.90;17.60;;;;;;4987902;28;20425;-68
2023/07/09 10:30:12;;;;;;;1999.90;999.90;;;35.00;16.20;;;;;;4988221;28;20413;-68
2023/07/09 10:33:03;;;;;;;1999.90;999.90;;;35.20;15.60;;;;;;4991708;28;20412;-68
2023/07/09 10:35:36;;;;;;;1999.90;999.90;;;35.20;14.10;;;;;;5005657;28;20427;-68
2023/07/09 10:38:02;;;;;;;1999.90;999.90;;;35.20;14.00;;;;;;5007914;28;21165;-68
2023/07/09 10:40:43;;;;;;;1999.90;999.90;;;35.30;13.10;;;;;;5007310;28;20622;-68
2023/07/09 10:43:15;;;;;;;1999.90;999.90;;;35.50;14.00;;;;;;5007158;28;20177;-68
2023/07/09 10:45:45;;;;;;;1999.90;999.90;;;35.60;13.70;;;;;;5009892;28;20423;-68
2023/07/09 10:48:19;;;;;;;1999.90;999.90;;;35.70;12.00;;;;;;5009533;28;20578;-68
2023/07/09 10:50:51;;;;;;;1999.90;999.90;;;36.00;12.20;;;;;;5011630;28;20426;-68
2023/07/09 10:54:02;;;;;;;1999.90;999.90;;;36.10;10.30;;;;;;5011642;28;20466;-68
2023/07/09 10:56:35;;;;;;;1999.90;999.90;;;36.10;9.70;;;;;;5007747;28;21039;-68
2023/07/09 10:59:19;;;;;;;1999.90;999.90;;;36.20;8.40;;;;;;5011780;28;20415;-68
2023/07/09 11:01:53;;;;;;;1999.90;999.90;;;36.30;9.00;;;;;;5011199;28;20463;-68
2023/07/09 11:04:29;;;;;;;1999.90;999.90;;;36.50;8.20;;;;;;5012005;28;20408;-68
2023/07/09 11:06:58;;;;;;;1999.90;999.90;;;36.80;8.10;;;;;;5011666;28;20490;-68
2023/07/09 11:09:36;;;;;;;1999.90;999.90;;;36.90;8.50;;;;;;5010939;28;20412;-68
2023/07/09 11:12:11;;;;;;;1999.90;999.90;;;37.10;8.10;;;;;;5010756;28;20419;-68
2023/07/09 11:14:58;;;;;;;1999.90;999.90;;;37.30;7.10;;;;;;5010849;28;20937;-68
2023/07/09 11:17:26;;;;;;;1999.90;999.90;;;37.50;5.90;;;;;;5011355;28;20455;-68
2023/07/09 11:19:57;;;;;;;1999.90;999.90;;;37.90;5.70;;;;;;5010728;28;20459;-68
2023/07/09 11:22:28;;;;;;;1999.90;999.90;;;38.10;5.60;;;;;;5010471;28;20415;-68
2023/07/09 11:25:10;;;;;;;1999.90;999.90;;;38.20;2.80;;;;;;5010764;28;20503;-68
2023/07/09 11:27:49;;;;;;;1999.90;999.90;;;38.30;1.00;;;;;;5010711;28;20435;-68
2023/07/09 11:30:22;;;;;;;1999.90;999.90;;;38.20;1.40;;;;;;5010517;28;20423;-68
2023/07/09 11:32:53;;;;;;;1999.90;999.90;;;38.00;1.00;;;;;;5010076;28;20452;-68
2023/07/09 11:35:25;;;;;;;1999.90;999.90;;;37.90;1.00;;;;;;5011005;28;20416;-68
2023/07/09 11:37:52;;;;;;;1999.90;999.90;;;37.80;1.00;;;;;;5011211;28;20480;-68
2023/07/09 11:40:20;;;;;;;1999.90;999.90;;;37.80;1.10;;;;;;5010287;28;20471;-68
2023/07/09 11:42:50;;;;;;;1999.90;999.90;;;37.80;1.00;;;;;;5010121;28;20416;-68
2023/07/09 11:45:21;;;;;;;1999.90;999.90;;;37.80;1.60;;;;;;5010882;28;20852;-68
2023/07/09 11:47:52;;;;;;;1999.90;999.90;;;38.00;1.00;;;;;;5011093;28;20501;-68
2023/07/09 11:50:28;;;;;;;1999.90;999.90;;;38.20;1.00;;;;;;5010355;28;20424;-68
2023/07/09 11:53:02;;;;;;;1999.90;999.90;;;38.50;1.00;;;;;;5009874;28;20435;-68
2023/07/09 11:55:29;;;;;;;1999.90;999.90;;;38.70;1.00;;;;;;5008963;28;20423;-68
2023/07/09 11:58:00;;;;;;;1999.90;999.90;;;38.80;1.00;;;;;;5009841;28;20432;-68
2023/07/09 12:00:29;;;;;;;1999.90;999.90;;;38.90;1.00;;;;;;5010711;28;20463;-68
2023/07/09 12:02:56;;;;;;;1999.90;999.90;;;38.80;1.00;;;;;;5010074;28;20422;-68
2023/07/09 12:05:28;;;;;;;1999.90;999.90;;;38.80;1.00;;;;;;5009956;28;20423;-68
2023/07/09 12:07:55;;;;;;;1999.90;999.90;;;38.90;1.00;;;;;;5009888;28;20468;-68
2023/07/09 12:10:27;;;;;;;1999.90;999.90;;;39.10;1.00;;;;;;5010517;28;20435;-68
2023/07/09 12:12:57;;;;;;;1999.90;999.90;;;39.20;1.00;;;;;;5009900;28;20844;-68